createdAt,value
2023-05-08T00:01:07.626Z,16.04
2023-05-08T00:06:09.161Z,15.86
2023-05-08T00:11:10.616Z,15.66
2023-05-08T00:16:12.682Z,15.93
2023-05-08T00:21:14.324Z,15.56
2023-05-08T00:26:15.772Z,15.41
2023-05-08T00:31:17.238Z,15.38
2023-05-08T00:36:18.718Z,15.54
2023-05-08T00:41:20.167Z,15.03
2023-05-08T00:46:21.733Z,15.23
2023-05-08T00:51:23.274Z,15.39
2023-05-08T00:56:24.834Z,15.75
2023-05-08T01:01:26.368Z,15.49
2023-05-08T01:06:27.865Z,15.30
2023-05-08T01:11:45.952Z,14.90
2023-05-08T01:16:59.046Z,14.67
2023-05-08T01:22:05.742Z,14.82
2023-05-08T01:27:25.406Z,15.21
2023-05-08T01:32:28.422Z,15.65
2023-05-08T01:37:32.856Z,15.21
2023-05-08T01:42:49.461Z,14.93
2023-05-08T01:47:55.717Z,14.92
2023-05-08T01:52:58.602Z,14.77
2023-05-08T01:58:00.152Z,14.85
2023-05-08T02:03:01.676Z,15.19
2023-05-08T02:08:03.366Z,15.23
2023-05-08T02:13:04.980Z,15.20
2023-05-08T02:18:07.566Z,14.90
2023-05-08T02:23:09.020Z,14.98
2023-05-08T02:28:10.468Z,14.87
2023-05-08T02:33:12.511Z,14.87
2023-05-08T02:38:13.975Z,14.99
2023-05-08T02:43:15.417Z,14.43
2023-05-08T02:48:23.065Z,14.79
2023-05-08T02:53:35.941Z,14.34
2023-05-08T02:58:43.541Z,14.50
2023-05-08T03:03:46.145Z,14.68
2023-05-08T03:08:47.830Z,14.61
2023-05-08T03:13:49.300Z,14.49
2023-05-08T03:18:55.859Z,14.51
2023-05-08T03:23:58.121Z,14.56
2023-05-08T03:28:59.572Z,14.60
2023-05-08T03:34:01.023Z,14.72
2023-05-08T03:39:02.497Z,14.74
2023-05-08T03:44:03.999Z,14.61
2023-05-08T03:49:05.478Z,14.39
2023-05-08T03:54:07.064Z,14.94
2023-05-08T03:59:15.193Z,13.95
2023-05-08T04:04:18.253Z,14.44
2023-05-08T04:09:38.890Z,14.21
2023-05-08T04:14:44.149Z,14.52
2023-05-08T04:19:46.719Z,14.32
2023-05-08T04:24:48.169Z,14.50
2023-05-08T04:29:49.622Z,14.40
2023-05-08T04:34:51.265Z,14.61
2023-05-08T04:39:52.792Z,14.31
2023-05-08T04:44:54.362Z,14.19
2023-05-08T04:49:55.829Z,14.11
2023-05-08T04:54:57.289Z,14.00
2023-05-08T04:59:58.773Z,14.07
2023-05-08T05:05:01.308Z,14.12
2023-05-08T05:10:02.936Z,13.61
2023-05-08T05:15:04.692Z,14.29
2023-05-08T05:20:08.564Z,13.81
2023-05-08T05:25:10.358Z,14.07
2023-05-08T05:30:12.466Z,13.80
2023-05-08T05:35:14.301Z,14.08
2023-05-08T05:40:15.920Z,14.12
2023-05-08T05:45:17.370Z,14.26
2023-05-08T05:50:18.941Z,13.86
2023-05-08T05:55:20.594Z,13.66
2023-05-08T06:00:22.975Z,14.05
2023-05-08T06:05:24.562Z,14.34
2023-05-08T06:10:26.032Z,14.36
2023-05-08T06:15:27.488Z,14.55
2023-05-08T06:20:28.944Z,14.44
2023-05-08T06:25:31.030Z,14.66
2023-05-08T06:30:32.524Z,14.99
2023-05-08T06:35:34.005Z,15.03
2023-05-08T06:40:35.464Z,15.16
2023-05-08T06:45:36.918Z,14.96
2023-05-08T06:50:39.304Z,14.95
2023-05-08T07:02:02.463Z,14.81
2023-05-08T07:07:04.057Z,15.18
2023-05-08T07:12:05.609Z,15.32
2023-05-08T07:17:07.117Z,15.59
2023-05-08T07:22:08.769Z,16.24
2023-05-08T07:27:10.343Z,16.37
2023-05-08T07:32:11.928Z,16.22
2023-05-08T07:37:13.422Z,16.25
2023-05-08T07:42:14.921Z,16.38
2023-05-08T07:47:16.491Z,16.37
2023-05-08T07:52:18.037Z,16.43
2023-05-08T07:57:19.565Z,16.38
2023-05-08T08:02:21.383Z,16.41
2023-05-08T08:07:22.960Z,16.26
2023-05-08T08:12:24.447Z,16.16
2023-05-08T08:17:28.452Z,16.32
2023-05-08T08:22:30.592Z,16.76
2023-05-08T08:27:32.254Z,16.97
2023-05-08T08:32:33.777Z,16.96
2023-05-08T08:37:35.313Z,16.74
2023-05-08T08:42:37.371Z,16.93
2023-05-08T08:47:41.196Z,16.98
2023-05-08T08:53:02.099Z,16.79
2023-05-08T08:58:13.629Z,17.00
2023-05-08T09:03:15.530Z,17.14
2023-05-08T09:08:18.688Z,16.92
2023-05-08T09:13:20.250Z,17.21
2023-05-08T09:18:21.772Z,17.20
2023-05-08T09:23:23.314Z,16.80
2023-05-08T09:28:25.335Z,17.49
2023-05-08T09:33:27.982Z,17.27
2023-05-08T09:38:37.464Z,17.21
2023-05-08T09:43:39.099Z,17.30
2023-05-08T09:48:40.606Z,17.39
2023-05-08T09:53:42.118Z,17.52
2023-05-08T09:58:44.190Z,17.76
2023-05-08T10:03:49.258Z,17.62
2023-05-08T10:09:06.601Z,18.04
2023-05-08T10:14:08.330Z,18.41
2023-05-08T10:19:14.538Z,18.26
2023-05-08T10:24:17.605Z,17.92
2023-05-08T10:29:21.852Z,18.17
2023-05-08T10:34:23.409Z,18.64
2023-05-08T10:39:25.715Z,18.53
2023-05-08T10:44:27.338Z,18.76
2023-05-08T10:49:38.768Z,18.78
2023-05-08T10:55:04.639Z,19.28
2023-05-08T11:00:06.879Z,19.12
2023-05-08T11:05:16.359Z,19.39
2023-05-08T11:10:17.856Z,19.38
2023-05-08T11:15:24.135Z,19.38
2023-05-08T11:20:39.834Z,19.74
2023-05-08T11:25:41.946Z,19.81
2023-05-08T11:30:44.330Z,20.06
2023-05-08T11:35:50.012Z,20.29
2023-05-08T11:40:58.397Z,20.46
2023-05-08T11:46:04.292Z,20.78
2023-05-08T11:51:06.093Z,20.65
2023-05-08T11:56:08.129Z,20.59
2023-05-08T12:01:09.565Z,20.51
2023-05-08T12:06:11.103Z,20.21
2023-05-08T12:11:12.642Z,20.66
2023-05-08T12:16:14.218Z,19.83
2023-05-08T12:21:16.096Z,20.37
2023-05-08T12:26:17.597Z,20.56
2023-05-08T12:31:19.110Z,20.47
2023-05-08T12:36:21.092Z,20.54
2023-05-08T12:41:24.024Z,20.63
2023-05-08T12:46:25.675Z,20.89
2023-05-08T12:51:30.932Z,20.73
2023-05-08T12:56:32.431Z,20.60
2023-05-08T13:01:33.972Z,20.60
2023-05-08T13:06:35.541Z,21.02
2023-05-08T13:11:38.418Z,20.15
2023-05-08T13:16:46.263Z,20.22
2023-05-08T13:21:48.146Z,20.94
2023-05-08T13:26:49.703Z,21.00
2023-05-08T13:31:51.223Z,21.49
2023-05-08T13:36:52.904Z,21.94
2023-05-08T13:41:54.400Z,21.39
2023-05-08T13:46:55.905Z,22.09
2023-05-08T13:51:57.537Z,21.84
2023-05-08T13:56:59.029Z,22.20
2023-05-08T14:02:00.625Z,22.26
2023-05-08T14:07:04.399Z,22.59
2023-05-08T14:12:05.916Z,22.51
2023-05-08T14:17:07.488Z,22.55
2023-05-08T14:22:08.975Z,22.14
2023-05-08T14:27:10.546Z,22.23
2023-05-08T14:32:12.115Z,22.18
2023-05-08T14:37:13.666Z,22.10
2023-05-08T14:42:22.980Z,22.36
2023-05-08T14:47:25.704Z,21.66
2023-05-08T14:52:27.253Z,21.75
2023-05-08T14:57:28.798Z,22.17
2023-05-08T15:02:30.433Z,21.99
2023-05-08T15:07:31.995Z,21.43
2023-05-08T15:12:33.497Z,21.21
2023-05-08T15:17:36.438Z,21.20
2023-05-08T15:22:38.113Z,21.47
2023-05-08T15:27:39.720Z,21.49
2023-05-08T15:32:43.285Z,21.00
2023-05-08T15:37:44.874Z,21.23
2023-05-08T15:42:46.408Z,21.53
2023-05-08T15:47:47.991Z,21.53
2023-05-08T15:52:49.681Z,21.37
2023-05-08T15:57:51.240Z,21.48
2023-05-08T16:02:52.800Z,21.10
2023-05-08T16:07:55.545Z,21.41
2023-05-08T16:12:57.100Z,21.13
2023-05-08T16:17:58.632Z,21.13
2023-05-08T16:23:00.185Z,21.23
2023-05-08T16:28:01.983Z,21.10
2023-05-08T16:33:03.653Z,20.96
2023-05-08T16:38:06.104Z,20.93
2023-05-08T16:43:08.654Z,20.92
2023-05-08T16:48:10.392Z,20.86
2023-05-08T16:53:11.996Z,21.21
2023-05-08T16:58:13.502Z,21.10
2023-05-08T17:03:15.092Z,21.18
2023-05-08T17:08:16.722Z,21.11
2023-05-08T17:13:18.359Z,21.07
2023-05-08T17:18:19.898Z,21.07
2023-05-08T17:23:21.428Z,21.16
2023-05-08T17:28:22.919Z,20.92
2023-05-08T17:33:24.494Z,21.02
2023-05-08T17:38:25.997Z,20.81
2023-05-08T17:43:28.624Z,20.94
2023-05-08T17:48:30.133Z,20.68
2023-05-08T17:53:31.879Z,19.98
2023-05-08T17:58:33.404Z,19.94
2023-05-08T18:03:34.958Z,19.58
2023-05-08T18:08:36.517Z,19.82
2023-05-08T18:13:38.127Z,19.71
2023-05-08T18:18:39.614Z,19.57
2023-05-08T18:23:41.144Z,19.36
2023-05-08T18:28:43.388Z,19.54
2023-05-08T18:33:45.937Z,19.67
2023-05-08T18:38:47.432Z,19.77
2023-05-08T18:43:48.946Z,19.73
2023-05-08T18:48:50.490Z,19.55
2023-05-08T18:53:51.989Z,19.26
2023-05-08T18:58:53.494Z,19.35
2023-05-08T19:03:55.113Z,19.59
2023-05-08T19:08:56.656Z,19.46
2023-05-08T19:13:58.157Z,19.33
2023-05-08T19:18:59.666Z,19.26
2023-05-08T19:24:01.361Z,19.25
2023-05-08T19:29:02.856Z,19.03
2023-05-08T19:34:04.375Z,18.99
2023-05-08T19:39:05.913Z,19.00
2023-05-08T19:44:07.414Z,19.06
2023-05-08T19:49:08.916Z,18.53
2023-05-08T19:54:10.433Z,19.04
2023-05-08T19:59:11.961Z,18.68
2023-05-08T20:04:13.626Z,18.98
2023-05-08T20:09:15.132Z,19.00
2023-05-08T20:14:16.630Z,19.17
2023-05-08T20:19:22.029Z,19.18
2023-05-08T20:24:23.597Z,19.09
2023-05-08T20:29:25.119Z,18.82
2023-05-08T20:34:26.601Z,18.79
2023-05-08T20:39:28.104Z,18.58
2023-05-08T20:44:29.584Z,18.78
2023-05-08T20:49:31.486Z,18.87
2023-05-08T20:54:33.040Z,18.63
2023-05-08T20:59:34.519Z,18.59
2023-05-08T21:04:36.570Z,18.04
2023-05-08T21:09:38.138Z,18.06
2023-05-08T21:14:39.625Z,18.40
2023-05-08T21:19:41.240Z,18.02
2023-05-08T21:24:43.574Z,17.90
2023-05-08T21:29:44.934Z,18.01
2023-05-08T21:34:46.426Z,17.89
2023-05-08T21:39:47.950Z,17.61
2023-05-08T21:44:49.442Z,17.36
2023-05-08T21:49:51.016Z,17.70
2023-05-08T21:54:52.823Z,17.20
2023-05-08T21:59:54.375Z,17.77
2023-05-08T22:04:55.879Z,17.55
2023-05-08T22:09:57.365Z,17.85
2023-05-08T22:14:58.857Z,17.64
2023-05-08T22:20:00.340Z,17.71
2023-05-08T22:25:01.960Z,17.62
2023-05-08T22:30:03.570Z,17.77
2023-05-08T22:35:06.148Z,17.53
2023-05-08T22:40:08.196Z,17.48
2023-05-08T22:45:10.667Z,17.47
2023-05-08T22:50:12.320Z,16.97
2023-05-08T22:55:15.483Z,17.81
2023-05-08T23:00:17.430Z,17.78
2023-05-08T23:05:18.982Z,17.49
2023-05-08T23:10:20.550Z,17.25
2023-05-08T23:15:22.085Z,17.64
2023-05-08T23:20:23.618Z,17.49
2023-05-08T23:25:25.241Z,17.58
2023-05-08T23:30:26.777Z,17.71
2023-05-08T23:35:28.433Z,17.35
2023-05-08T23:40:29.937Z,17.49
2023-05-08T23:45:31.447Z,17.34
2023-05-08T23:50:32.950Z,17.51
2023-05-08T23:55:37.897Z,17.04
